sensor_id;sensor_type;location;lat;lon;timestamp;temperature;humidity
48535;DHT22;34323;52.022;5.686;2022-07-15T00:01:52;20.80;99.00
48535;DHT22;34323;52.022;5.686;2022-07-15T00:04:18;20.80;99.00
48535;DHT22;34323;52.022;5.686;2022-07-15T00:06:44;20.70;99.10
48535;DHT22;34323;52.022;5.686;2022-07-15T00:09:10;20.60;99.20
48535;DHT22;34323;52.022;5.686;2022-07-15T00:11:35;20.60;99.00
48535;DHT22;34323;52.022;5.686;2022-07-15T00:14:01;20.80;98.90
48535;DHT22;34323;52.022;5.686;2022-07-15T00:16:27;20.80;98.80
48535;DHT22;34323;52.022;5.686;2022-07-15T00:18:52;20.80;98.90
48535;DHT22;34323;52.022;5.686;2022-07-15T00:21:18;20.70;99.20
48535;DHT22;34323;52.022;5.686;2022-07-15T00:23:44;20.60;99.20
48535;DHT22;34323;52.022;5.686;2022-07-15T00:26:10;20.60;99.20
48535;DHT22;34323;52.022;5.686;2022-07-15T00:28:35;20.80;99.10
48535;DHT22;34323;52.022;5.686;2022-07-15T00:31:01;20.90;98.90
48535;DHT22;34323;52.022;5.686;2022-07-15T00:33:27;21.00;98.70
48535;DHT22;34323;52.022;5.686;2022-07-15T00:35:53;21.30;98.40
48535;DHT22;34323;52.022;5.686;2022-07-15T00:38:19;21.40;98.40
48535;DHT22;34323;52.022;5.686;2022-07-15T00:40:46;21.20;98.50
48535;DHT22;34323;52.022;5.686;2022-07-15T00:43:13;21.30;98.50
48535;DHT22;34323;52.022;5.686;2022-07-15T00:45:41;21.20;98.50
48535;DHT22;34323;52.022;5.686;2022-07-15T00:48:07;21.30;98.50
48535;DHT22;34323;52.022;5.686;2022-07-15T00:50:33;21.40;98.70
48535;DHT22;34323;52.022;5.686;2022-07-15T00:53:07;21.50;98.40
48535;DHT22;34323;52.022;5.686;2022-07-15T00:55:46;21.20;98.20
48535;DHT22;34323;52.022;5.686;2022-07-15T00:58:17;21.50;98.30
48535;DHT22;34323;52.022;5.686;2022-07-15T01:00:44;21.60;98.20
48535;DHT22;34323;52.022;5.686;2022-07-15T01:03:11;21.70;98.20
48535;DHT22;34323;52.022;5.686;2022-07-15T01:05:37;21.70;98.30
48535;DHT22;34323;52.022;5.686;2022-07-15T01:08:03;21.50;98.40
48535;DHT22;34323;52.022;5.686;2022-07-15T01:10:29;21.50;98.60
48535;DHT22;34323;52.022;5.686;2022-07-15T01:12:55;21.30;98.70
48535;DHT22;34323;52.022;5.686;2022-07-15T01:15:21;21.10;98.90
48535;DHT22;34323;52.022;5.686;2022-07-15T01:17:47;20.80;98.90
48535;DHT22;34323;52.022;5.686;2022-07-15T01:20:14;20.50;99.20
48535;DHT22;34323;52.022;5.686;2022-07-15T01:22:40;20.30;99.40
48535;DHT22;34323;52.022;5.686;2022-07-15T01:25:06;20.40;99.40
48535;DHT22;34323;52.022;5.686;2022-07-15T01:27:32;20.40;99.30
48535;DHT22;34323;52.022;5.686;2022-07-15T01:29:59;20.50;99.20
48535;DHT22;34323;52.022;5.686;2022-07-15T01:32:26;20.50;99.20
48535;DHT22;34323;52.022;5.686;2022-07-15T01:34:52;20.20;99.50
48535;DHT22;34323;52.022;5.686;2022-07-15T01:37:18;20.20;99.50
48535;DHT22;34323;52.022;5.686;2022-07-15T01:39:44;20.10;99.40
48535;DHT22;34323;52.022;5.686;2022-07-15T01:42:10;20.30;99.30
48535;DHT22;34323;52.022;5.686;2022-07-15T01:44:36;20.40;99.00
48535;DHT22;34323;52.022;5.686;2022-07-15T01:47:02;20.50;98.90
48535;DHT22;34323;52.022;5.686;2022-07-15T01:49:28;20.40;98.90
48535;DHT22;34323;52.022;5.686;2022-07-15T01:52:01;20.50;98.80
48535;DHT22;34323;52.022;5.686;2022-07-15T01:54:29;20.40;99.00
48535;DHT22;34323;52.022;5.686;2022-07-15T01:56:56;20.30;99.10
48535;DHT22;34323;52.022;5.686;2022-07-15T01:59:22;20.40;99.10
48535;DHT22;34323;52.022;5.686;2022-07-15T02:01:50;20.40;99.10
48535;DHT22;34323;52.022;5.686;2022-07-15T02:04:16;20.40;99.00
48535;DHT22;34323;52.022;5.686;2022-07-15T02:06:42;20.30;99.00
48535;DHT22;34323;52.022;5.686;2022-07-15T02:09:08;20.30;99.10
48535;DHT22;34323;52.022;5.686;2022-07-15T02:11:34;20.40;99.10
48535;DHT22;34323;52.022;5.686;2022-07-15T02:14:01;20.40;99.10
48535;DHT22;34323;52.022;5.686;2022-07-15T02:16:28;20.60;98.90
48535;DHT22;34323;52.022;5.686;2022-07-15T02:18:54;20.60;99.00
48535;DHT22;34323;52.022;5.686;2022-07-15T02:21:20;20.40;99.00
48535;DHT22;34323;52.022;5.686;2022-07-15T02:23:46;20.40;99.30
48535;DHT22;34323;52.022;5.686;2022-07-15T02:26:13;20.10;99.50
48535;DHT22;34323;52.022;5.686;2022-07-15T02:28:39;20.10;99.60
48535;DHT22;34323;52.022;5.686;2022-07-15T02:31:05;19.70;99.90
48535;DHT22;34323;52.022;5.686;2022-07-15T02:33:31;19.80;99.80
48535;DHT22;34323;52.022;5.686;2022-07-15T02:35:57;19.90;99.80
48535;DHT22;34323;52.022;5.686;2022-07-15T02:38:23;19.90;99.90
48535;DHT22;34323;52.022;5.686;2022-07-15T02:40:49;19.90;99.90
48535;DHT22;34323;52.022;5.686;2022-07-15T02:43:15;19.70;99.90
48535;DHT22;34323;52.022;5.686;2022-07-15T02:45:41;19.60;99.90
48535;DHT22;34323;52.022;5.686;2022-07-15T02:48:08;19.50;99.90
48535;DHT22;34323;52.022;5.686;2022-07-15T02:50:34;19.50;99.90
48535;DHT22;34323;52.022;5.686;2022-07-15T02:53:02;19.50;99.90
48535;DHT22;34323;52.022;5.686;2022-07-15T02:55:29;19.30;99.90
48535;DHT22;34323;52.022;5.686;2022-07-15T02:57:55;19.10;99.90
48535;DHT22;34323;52.022;5.686;2022-07-15T03:00:21;19.10;99.90
48535;DHT22;34323;52.022;5.686;2022-07-15T03:02:47;19.30;99.90
48535;DHT22;34323;52.022;5.686;2022-07-15T03:05:13;19.40;99.90
48535;DHT22;34323;52.022;5.686;2022-07-15T03:07:40;19.30;99.90
48535;DHT22;34323;52.022;5.686;2022-07-15T03:10:07;19.30;99.90
48535;DHT22;34323;52.022;5.686;2022-07-15T03:12:33;19.30;99.90
48535;DHT22;34323;52.022;5.686;2022-07-15T03:15:00;19.30;99.90
48535;DHT22;34323;52.022;5.686;2022-07-15T03:17:26;19.20;99.90
48535;DHT22;34323;52.022;5.686;2022-07-15T03:19:53;19.40;99.90
48535;DHT22;34323;52.022;5.686;2022-07-15T03:22:24;19.30;99.90
48535;DHT22;34323;52.022;5.686;2022-07-15T03:24:50;19.40;99.90
48535;DHT22;34323;52.022;5.686;2022-07-15T03:27:17;19.40;99.90
48535;DHT22;34323;52.022;5.686;2022-07-15T03:29:43;19.30;99.90
48535;DHT22;34323;52.022;5.686;2022-07-15T03:32:09;19.30;99.90
48535;DHT22;34323;52.022;5.686;2022-07-15T03:34:42;19.30;99.90
48535;DHT22;34323;52.022;5.686;2022-07-15T03:37:08;19.30;99.90
48535;DHT22;34323;52.022;5.686;2022-07-15T03:39:34;19.50;99.90
48535;DHT22;34323;52.022;5.686;2022-07-15T03:42:00;19.40;99.90
48535;DHT22;34323;52.022;5.686;2022-07-15T03:44:26;19.40;99.90
48535;DHT22;34323;52.022;5.686;2022-07-15T03:46:51;19.40;99.90
48535;DHT22;34323;52.022;5.686;2022-07-15T03:49:18;19.20;99.90
48535;DHT22;34323;52.022;5.686;2022-07-15T03:51:44;19.20;99.90
48535;DHT22;34323;52.022;5.686;2022-07-15T03:54:10;19.30;99.90
48535;DHT22;34323;52.022;5.686;2022-07-15T03:56:36;19.20;99.90
48535;DHT22;34323;52.022;5.686;2022-07-15T03:59:02;19.20;99.90
48535;DHT22;34323;52.022;5.686;2022-07-15T04:01:28;19.30;99.90
48535;DHT22;34323;52.022;5.686;2022-07-15T04:03:54;19.10;99.90
48535;DHT22;34323;52.022;5.686;2022-07-15T04:06:21;18.90;99.90
48535;DHT22;34323;52.022;5.686;2022-07-15T04:08:47;18.60;99.90
48535;DHT22;34323;52.022;5.686;2022-07-15T04:11:15;18.70;99.90
48535;DHT22;34323;52.022;5.686;2022-07-15T04:13:41;18.80;99.90
48535;DHT22;34323;52.022;5.686;2022-07-15T04:16:09;18.80;99.90
48535;DHT22;34323;52.022;5.686;2022-07-15T04:18:35;18.90;99.90
48535;DHT22;34323;52.022;5.686;2022-07-15T04:21:01;18.70;99.90
48535;DHT22;34323;52.022;5.686;2022-07-15T04:23:27;18.70;99.90
48535;DHT22;34323;52.022;5.686;2022-07-15T04:25:53;18.50;99.90
48535;DHT22;34323;52.022;5.686;2022-07-15T04:28:20;18.30;99.90
48535;DHT22;34323;52.022;5.686;2022-07-15T04:30:46;18.20;99.90
48535;DHT22;34323;52.022;5.686;2022-07-15T04:33:12;18.30;99.90
48535;DHT22;34323;52.022;5.686;2022-07-15T04:35:37;18.00;99.90
48535;DHT22;34323;52.022;5.686;2022-07-15T04:38:04;17.90;99.90
48535;DHT22;34323;52.022;5.686;2022-07-15T04:40:30;17.90;99.90
48535;DHT22;34323;52.022;5.686;2022-07-15T04:42:58;18.00;99.90
48535;DHT22;34323;52.022;5.686;2022-07-15T04:45:25;18.10;99.90
48535;DHT22;34323;52.022;5.686;2022-07-15T04:47:51;18.30;99.90
48535;DHT22;34323;52.022;5.686;2022-07-15T04:50:17;18.50;99.90
48535;DHT22;34323;52.022;5.686;2022-07-15T04:53:01;18.50;99.90
48535;DHT22;34323;52.022;5.686;2022-07-15T04:55:26;18.50;99.90
48535;DHT22;34323;52.022;5.686;2022-07-15T04:57:53;18.50;99.90
48535;DHT22;34323;52.022;5.686;2022-07-15T05:00:19;18.60;99.90
48535;DHT22;34323;52.022;5.686;2022-07-15T05:02:45;18.70;99.90
48535;DHT22;34323;52.022;5.686;2022-07-15T05:05:11;19.00;99.90
48535;DHT22;34323;52.022;5.686;2022-07-15T05:07:37;18.90;99.90
48535;DHT22;34323;52.022;5.686;2022-07-15T05:10:04;18.80;99.90
48535;DHT22;34323;52.022;5.686;2022-07-15T05:12:30;19.00;99.90
48535;DHT22;34323;52.022;5.686;2022-07-15T05:14:56;18.80;99.90
48535;DHT22;34323;52.022;5.686;2022-07-15T05:17:22;18.40;99.90
48535;DHT22;34323;52.022;5.686;2022-07-15T05:19:48;18.40;99.90
48535;DHT22;34323;52.022;5.686;2022-07-15T05:22:13;18.40;99.90
48535;DHT22;34323;52.022;5.686;2022-07-15T05:24:41;18.50;99.90
48535;DHT22;34323;52.022;5.686;2022-07-15T05:27:07;18.40;99.90
48535;DHT22;34323;52.022;5.686;2022-07-15T05:29:33;18.30;99.90
48535;DHT22;34323;52.022;5.686;2022-07-15T05:31:59;18.40;99.90
48535;DHT22;34323;52.022;5.686;2022-07-15T05:34:25;18.30;99.90
48535;DHT22;34323;52.022;5.686;2022-07-15T05:36:51;18.30;99.90
48535;DHT22;34323;52.022;5.686;2022-07-15T05:39:16;18.50;99.90
48535;DHT22;34323;52.022;5.686;2022-07-15T05:41:42;18.70;99.90
48535;DHT22;34323;52.022;5.686;2022-07-15T05:44:08;19.00;99.90
48535;DHT22;34323;52.022;5.686;2022-07-15T05:46:34;18.80;99.90
48535;DHT22;34323;52.022;5.686;2022-07-15T05:49:00;18.80;99.90
48535;DHT22;34323;52.022;5.686;2022-07-15T05:51:26;19.00;99.90
48535;DHT22;34323;52.022;5.686;2022-07-15T05:53:52;19.00;99.90
48535;DHT22;34323;52.022;5.686;2022-07-15T05:56:18;18.90;99.90
48535;DHT22;34323;52.022;5.686;2022-07-15T05:58:43;19.00;99.90
48535;DHT22;34323;52.022;5.686;2022-07-15T06:01:09;19.20;99.90
48535;DHT22;34323;52.022;5.686;2022-07-15T06:03:35;19.30;99.90
48535;DHT22;34323;52.022;5.686;2022-07-15T06:06:02;19.60;99.90
48535;DHT22;34323;52.022;5.686;2022-07-15T06:08:29;19.50;99.90
48535;DHT22;34323;52.022;5.686;2022-07-15T06:10:54;19.70;99.90
48535;DHT22;34323;52.022;5.686;2022-07-15T06:13:21;19.80;99.90
48535;DHT22;34323;52.022;5.686;2022-07-15T06:15:47;19.60;99.90
48535;DHT22;34323;52.022;5.686;2022-07-15T06:18:13;19.70;99.90
48535;DHT22;34323;52.022;5.686;2022-07-15T06:20:39;19.70;99.90
48535;DHT22;34323;52.022;5.686;2022-07-15T06:23:05;19.80;99.90
48535;DHT22;34323;52.022;5.686;2022-07-15T06:25:31;20.20;99.90
48535;DHT22;34323;52.022;5.686;2022-07-15T06:27:57;20.10;99.90
48535;DHT22;34323;52.022;5.686;2022-07-15T06:30:23;19.90;99.90
48535;DHT22;34323;52.022;5.686;2022-07-15T06:32:49;19.80;99.90
48535;DHT22;34323;52.022;5.686;2022-07-15T06:35:14;19.90;99.90
48535;DHT22;34323;52.022;5.686;2022-07-15T06:37:40;20.40;99.90
48535;DHT22;34323;52.022;5.686;2022-07-15T06:40:07;20.50;99.90
48535;DHT22;34323;52.022;5.686;2022-07-15T06:42:33;20.60;99.90
48535;DHT22;34323;52.022;5.686;2022-07-15T06:44:59;20.70;99.90
48535;DHT22;34323;52.022;5.686;2022-07-15T06:47:25;20.80;99.90
48535;DHT22;34323;52.022;5.686;2022-07-15T06:49:54;21.00;99.90
48535;DHT22;34323;52.022;5.686;2022-07-15T06:52:19;20.50;99.90
48535;DHT22;34323;52.022;5.686;2022-07-15T06:54:45;20.30;99.90
48535;DHT22;34323;52.022;5.686;2022-07-15T06:57:11;20.40;99.90
48535;DHT22;34323;52.022;5.686;2022-07-15T06:59:38;20.40;99.90
48535;DHT22;34323;52.022;5.686;2022-07-15T07:02:04;20.40;99.90
48535;DHT22;34323;52.022;5.686;2022-07-15T07:04:30;20.50;99.90
48535;DHT22;34323;52.022;5.686;2022-07-15T07:06:55;20.40;99.90
48535;DHT22;34323;52.022;5.686;2022-07-15T07:09:21;20.30;99.90
48535;DHT22;34323;52.022;5.686;2022-07-15T07:11:47;20.40;99.90
48535;DHT22;34323;52.022;5.686;2022-07-15T07:14:13;20.50;99.90
48535;DHT22;34323;52.022;5.686;2022-07-15T07:16:39;20.30;99.90
48535;DHT22;34323;52.022;5.686;2022-07-15T07:19:04;20.60;99.90
48535;DHT22;34323;52.022;5.686;2022-07-15T07:21:30;20.70;99.90
48535;DHT22;34323;52.022;5.686;2022-07-15T07:23:57;20.70;99.90
48535;DHT22;34323;52.022;5.686;2022-07-15T07:26:22;20.80;99.90
48535;DHT22;34323;52.022;5.686;2022-07-15T07:28:49;20.80;99.90
48535;DHT22;34323;52.022;5.686;2022-07-15T07:31:15;21.10;99.90
48535;DHT22;34323;52.022;5.686;2022-07-15T07:33:41;21.10;99.90
48535;DHT22;34323;52.022;5.686;2022-07-15T07:36:07;21.20;99.90
48535;DHT22;34323;52.022;5.686;2022-07-15T07:38:34;21.40;99.90
48535;DHT22;34323;52.022;5.686;2022-07-15T07:41:00;21.30;99.90
48535;DHT22;34323;52.022;5.686;2022-07-15T07:43:26;21.40;99.90
48535;DHT22;34323;52.022;5.686;2022-07-15T07:45:54;21.40;99.80
48535;DHT22;34323;52.022;5.686;2022-07-15T07:48:20;21.50;99.60
48535;DHT22;34323;52.022;5.686;2022-07-15T07:50:46;21.50;99.20
48535;DHT22;34323;52.022;5.686;2022-07-15T07:53:12;21.50;99.30
48535;DHT22;34323;52.022;5.686;2022-07-15T07:55:38;21.60;99.40
48535;DHT22;34323;52.022;5.686;2022-07-15T07:58:04;21.80;99.50
48535;DHT22;34323;52.022;5.686;2022-07-15T08:00:31;22.00;99.40
48535;DHT22;34323;52.022;5.686;2022-07-15T08:02:59;22.10;99.40
48535;DHT22;34323;52.022;5.686;2022-07-15T08:05:26;22.10;99.20
48535;DHT22;34323;52.022;5.686;2022-07-15T08:08:13;22.20;98.90
48535;DHT22;34323;52.022;5.686;2022-07-15T08:10:41;22.60;98.10
48535;DHT22;34323;52.022;5.686;2022-07-15T08:13:07;22.60;98.10
48535;DHT22;34323;52.022;5.686;2022-07-15T08:15:33;22.60;97.70
48535;DHT22;34323;52.022;5.686;2022-07-15T08:17:59;22.70;98.00
48535;DHT22;34323;52.022;5.686;2022-07-15T08:20:27;22.50;97.30
48535;DHT22;34323;52.022;5.686;2022-07-15T08:22:53;22.80;97.30
48535;DHT22;34323;52.022;5.686;2022-07-15T08:25:28;22.70;97.70
48535;DHT22;34323;52.022;5.686;2022-07-15T08:27:55;23.20;97.90
48535;DHT22;34323;52.022;5.686;2022-07-15T08:30:22;23.20;97.80
48535;DHT22;34323;52.022;5.686;2022-07-15T08:32:48;23.10;98.30
48535;DHT22;34323;52.022;5.686;2022-07-15T08:35:14;23.00;97.80
48535;DHT22;34323;52.022;5.686;2022-07-15T08:37:40;23.10;97.70
48535;DHT22;34323;52.022;5.686;2022-07-15T08:40:06;23.00;97.60
48535;DHT22;34323;52.022;5.686;2022-07-15T08:42:35;22.90;97.80
48535;DHT22;34323;52.022;5.686;2022-07-15T08:45:05;22.70;97.10
48535;DHT22;34323;52.022;5.686;2022-07-15T08:47:31;22.90;96.80
48535;DHT22;34323;52.022;5.686;2022-07-15T08:49:58;22.80;96.50
48535;DHT22;34323;52.022;5.686;2022-07-15T08:52:25;23.20;97.10
48535;DHT22;34323;52.022;5.686;2022-07-15T08:54:52;23.40;97.10
48535;DHT22;34323;52.022;5.686;2022-07-15T08:57:18;23.60;97.00
48535;DHT22;34323;52.022;5.686;2022-07-15T08:59:44;23.60;96.70
48535;DHT22;34323;52.022;5.686;2022-07-15T09:02:18;23.60;96.50
48535;DHT22;34323;52.022;5.686;2022-07-15T09:08:09;24.00;96.00
48535;DHT22;34323;52.022;5.686;2022-07-15T09:10:53;24.20;96.30
48535;DHT22;34323;52.022;5.686;2022-07-15T09:13:35;24.20;96.50
48535;DHT22;34323;52.022;5.686;2022-07-15T09:18:35;24.20;96.30
48535;DHT22;34323;52.022;5.686;2022-07-15T09:21:03;24.30;96.20
48535;DHT22;34323;52.022;5.686;2022-07-15T09:23:39;23.80;95.80
48535;DHT22;34323;52.022;5.686;2022-07-15T09:26:33;24.20;95.40
48535;DHT22;34323;52.022;5.686;2022-07-15T09:29:03;24.30;96.00
48535;DHT22;34323;52.022;5.686;2022-07-15T09:32:02;24.20;95.90
48535;DHT22;34323;52.022;5.686;2022-07-15T09:35:01;24.50;95.70
48535;DHT22;34323;52.022;5.686;2022-07-15T09:37:27;24.50;94.90
48535;DHT22;34323;52.022;5.686;2022-07-15T09:39:55;24.50;95.30
48535;DHT22;34323;52.022;5.686;2022-07-15T09:42:21;24.80;95.50
48535;DHT22;34323;52.022;5.686;2022-07-15T09:44:47;24.80;95.30
48535;DHT22;34323;52.022;5.686;2022-07-15T09:47:17;25.20;95.40
48535;DHT22;34323;52.022;5.686;2022-07-15T09:49:45;25.10;96.00
48535;DHT22;34323;52.022;5.686;2022-07-15T09:52:13;24.90;95.60
48535;DHT22;34323;52.022;5.686;2022-07-15T09:54:44;25.10;94.70
48535;DHT22;34323;52.022;5.686;2022-07-15T09:57:13;25.10;93.50
48535;DHT22;34323;52.022;5.686;2022-07-15T09:59:41;25.50;93.30
48535;DHT22;34323;52.022;5.686;2022-07-15T10:02:10;25.00;93.30
48535;DHT22;34323;52.022;5.686;2022-07-15T10:04:37;24.80;93.90
48535;DHT22;34323;52.022;5.686;2022-07-15T10:07:04;24.80;93.60
48535;DHT22;34323;52.022;5.686;2022-07-15T10:09:33;25.50;94.20
48535;DHT22;34323;52.022;5.686;2022-07-15T10:12:03;25.60;93.70
48535;DHT22;34323;52.022;5.686;2022-07-15T10:28:24;24.90;94.40
48535;DHT22;34323;52.022;5.686;2022-07-15T10:31:15;25.50;94.60
48535;DHT22;34323;52.022;5.686;2022-07-15T10:33:42;25.80;94.10
48535;DHT22;34323;52.022;5.686;2022-07-15T10:36:08;25.90;94.10
48535;DHT22;34323;52.022;5.686;2022-07-15T10:38:38;26.40;93.40
48535;DHT22;34323;52.022;5.686;2022-07-15T10:41:11;26.40;93.30
48535;DHT22;34323;52.022;5.686;2022-07-15T10:43:50;26.40;92.90
48535;DHT22;34323;52.022;5.686;2022-07-15T10:54:02;26.20;93.10
48535;DHT22;34323;52.022;5.686;2022-07-15T10:56:30;26.10;93.40
48535;DHT22;34323;52.022;5.686;2022-07-15T10:59:10;26.10;93.60
48535;DHT22;34323;52.022;5.686;2022-07-15T11:01:37;26.30;92.90
48535;DHT22;34323;52.022;5.686;2022-07-15T11:04:15;26.30;93.90
48535;DHT22;34323;52.022;5.686;2022-07-15T11:09:50;26.40;92.90
48535;DHT22;34323;52.022;5.686;2022-07-15T11:12:55;25.70;93.20
48535;DHT22;34323;52.022;5.686;2022-07-15T11:15:15;25.20;93.50
48535;DHT22;34323;52.022;5.686;2022-07-15T11:17:44;24.90;93.80
48535;DHT22;34323;52.022;5.686;2022-07-15T11:20:14;25.10;94.10
48535;DHT22;34323;52.022;5.686;2022-07-15T11:22:42;24.90;94.40
48535;DHT22;34323;52.022;5.686;2022-07-15T11:25:30;25.00;94.20
48535;DHT22;34323;52.022;5.686;2022-07-15T11:30:35;26.00;93.40
48535;DHT22;34323;52.022;5.686;2022-07-15T11:33:03;26.50;93.10
48535;DHT22;34323;52.022;5.686;2022-07-15T11:35:30;26.70;92.60
48535;DHT22;34323;52.022;5.686;2022-07-15T11:37:58;27.00;92.90
48535;DHT22;34323;52.022;5.686;2022-07-15T11:40:24;27.00;92.20
48535;DHT22;34323;52.022;5.686;2022-07-15T11:43:16;27.50;92.30
48535;DHT22;34323;52.022;5.686;2022-07-15T11:46:01;27.70;92.30
48535;DHT22;34323;52.022;5.686;2022-07-15T11:48:26;27.80;91.40
48535;DHT22;34323;52.022;5.686;2022-07-15T11:50:55;27.60;91.90
48535;DHT22;34323;52.022;5.686;2022-07-15T11:53:21;27.70;91.60
48535;DHT22;34323;52.022;5.686;2022-07-15T11:55:58;27.20;92.30
48535;DHT22;34323;52.022;5.686;2022-07-15T11:58:32;27.20;92.50
48535;DHT22;34323;52.022;5.686;2022-07-15T12:01:00;27.00;92.60
48535;DHT22;34323;52.022;5.686;2022-07-15T12:03:34;26.80;92.20
48535;DHT22;34323;52.022;5.686;2022-07-15T12:06:02;26.50;92.50
48535;DHT22;34323;52.022;5.686;2022-07-15T12:08:36;26.40;92.70
48535;DHT22;34323;52.022;5.686;2022-07-15T12:11:02;26.00;92.80
48535;DHT22;34323;52.022;5.686;2022-07-15T12:13:41;25.90;92.80
48535;DHT22;34323;52.022;5.686;2022-07-15T12:16:07;25.80;93.50
48535;DHT22;34323;52.022;5.686;2022-07-15T12:18:33;25.50;92.80
48535;DHT22;34323;52.022;5.686;2022-07-15T12:20:58;25.20;93.10
48535;DHT22;34323;52.022;5.686;2022-07-15T12:23:24;25.20;93.50
48535;DHT22;34323;52.022;5.686;2022-07-15T12:26:10;24.90;93.30
48535;DHT22;34323;52.022;5.686;2022-07-15T12:28:36;24.90;93.60
48535;DHT22;34323;52.022;5.686;2022-07-15T12:31:03;25.10;93.00
48535;DHT22;34323;52.022;5.686;2022-07-15T12:33:34;25.10;93.50
48535;DHT22;34323;52.022;5.686;2022-07-15T12:36:34;25.40;93.50
48535;DHT22;34323;52.022;5.686;2022-07-15T12:39:14;26.10;93.80
48535;DHT22;34323;52.022;5.686;2022-07-15T12:41:43;26.50;92.90
48535;DHT22;34323;52.022;5.686;2022-07-15T12:44:09;26.30;92.50
48535;DHT22;34323;52.022;5.686;2022-07-15T12:46:56;26.40;92.70
48535;DHT22;34323;52.022;5.686;2022-07-15T12:49:39;26.50;92.70
48535;DHT22;34323;52.022;5.686;2022-07-15T12:54:59;27.00;92.80
48535;DHT22;34323;52.022;5.686;2022-07-15T12:59:59;27.50;93.40
48535;DHT22;34323;52.022;5.686;2022-07-15T13:02:26;27.50;92.60
48535;DHT22;34323;52.022;5.686;2022-07-15T13:04:52;27.20;92.60
48535;DHT22;34323;52.022;5.686;2022-07-15T13:07:19;27.30;92.90
48535;DHT22;34323;52.022;5.686;2022-07-15T13:09:45;27.10;92.90
48535;DHT22;34323;52.022;5.686;2022-07-15T13:12:12;27.30;92.40
48535;DHT22;34323;52.022;5.686;2022-07-15T13:14:38;26.80;93.10
48535;DHT22;34323;52.022;5.686;2022-07-15T13:17:05;27.20;93.40
48535;DHT22;34323;52.022;5.686;2022-07-15T13:19:32;27.60;93.30
48535;DHT22;34323;52.022;5.686;2022-07-15T13:21:59;27.80;92.30
48535;DHT22;34323;52.022;5.686;2022-07-15T13:24:25;27.70;92.40
48535;DHT22;34323;52.022;5.686;2022-07-15T13:26:51;27.70;92.00
48535;DHT22;34323;52.022;5.686;2022-07-15T13:29:17;28.00;92.60
48535;DHT22;34323;52.022;5.686;2022-07-15T13:31:42;28.20;92.30
48535;DHT22;34323;52.022;5.686;2022-07-15T13:34:08;28.00;91.80
48535;DHT22;34323;52.022;5.686;2022-07-15T13:36:34;27.90;91.90
48535;DHT22;34323;52.022;5.686;2022-07-15T13:39:02;27.50;92.10
48535;DHT22;34323;52.022;5.686;2022-07-15T13:41:28;27.00;92.30
48535;DHT22;34323;52.022;5.686;2022-07-15T13:43:54;27.00;92.30
48535;DHT22;34323;52.022;5.686;2022-07-15T13:46:19;27.10;92.30
48535;DHT22;34323;52.022;5.686;2022-07-15T13:48:45;27.30;92.60
48535;DHT22;34323;52.022;5.686;2022-07-15T13:51:11;27.40;92.20
48535;DHT22;34323;52.022;5.686;2022-07-15T13:53:50;27.60;92.50
48535;DHT22;34323;52.022;5.686;2022-07-15T13:56:16;27.60;92.50
48535;DHT22;34323;52.022;5.686;2022-07-15T13:58:42;27.60;93.10
48535;DHT22;34323;52.022;5.686;2022-07-15T14:01:09;28.60;92.80
48535;DHT22;34323;52.022;5.686;2022-07-15T14:03:35;30.30;92.40
48535;DHT22;34323;52.022;5.686;2022-07-15T14:06:01;31.90;91.40
48535;DHT22;34323;52.022;5.686;2022-07-15T14:08:26;33.00;90.50
48535;DHT22;34323;52.022;5.686;2022-07-15T14:10:52;33.00;89.70
48535;DHT22;34323;52.022;5.686;2022-07-15T14:13:18;33.30;91.20
48535;DHT22;34323;52.022;5.686;2022-07-15T14:15:44;33.90;90.10
48535;DHT22;34323;52.022;5.686;2022-07-15T14:18:10;34.80;88.40
48535;DHT22;34323;52.022;5.686;2022-07-15T14:20:36;34.50;89.10
48535;DHT22;34323;52.022;5.686;2022-07-15T14:23:03;34.50;89.00
48535;DHT22;34323;52.022;5.686;2022-07-15T14:25:29;34.30;87.90
48535;DHT22;34323;52.022;5.686;2022-07-15T14:27:56;33.40;88.50
48535;DHT22;34323;52.022;5.686;2022-07-15T14:30:22;32.40;88.80
48535;DHT22;34323;52.022;5.686;2022-07-15T14:32:48;31.60;89.60
48535;DHT22;34323;52.022;5.686;2022-07-15T14:35:14;31.00;89.00
48535;DHT22;34323;52.022;5.686;2022-07-15T14:37:40;30.50;89.90
48535;DHT22;34323;52.022;5.686;2022-07-15T14:40:07;30.90;90.80
48535;DHT22;34323;52.022;5.686;2022-07-15T14:42:33;31.60;90.40
48535;DHT22;34323;52.022;5.686;2022-07-15T14:44:59;31.70;89.90
48535;DHT22;34323;52.022;5.686;2022-07-15T14:47:25;31.80;89.40
48535;DHT22;34323;52.022;5.686;2022-07-15T14:49:51;31.50;89.30
48535;DHT22;34323;52.022;5.686;2022-07-15T14:52:17;30.70;89.80
48535;DHT22;34323;52.022;5.686;2022-07-15T14:54:43;30.20;90.00
48535;DHT22;34323;52.022;5.686;2022-07-15T14:57:09;29.70;90.60
48535;DHT22;34323;52.022;5.686;2022-07-15T14:59:35;29.60;90.80
48535;DHT22;34323;52.022;5.686;2022-07-15T15:02:07;29.50;90.40
48535;DHT22;34323;52.022;5.686;2022-07-15T15:04:33;29.10;90.70
48535;DHT22;34323;52.022;5.686;2022-07-15T15:06:59;29.00;89.60
48535;DHT22;34323;52.022;5.686;2022-07-15T15:09:25;29.00;90.60
48535;DHT22;34323;52.022;5.686;2022-07-15T15:11:51;29.40;90.30
48535;DHT22;34323;52.022;5.686;2022-07-15T15:14:17;29.90;90.50
48535;DHT22;34323;52.022;5.686;2022-07-15T15:16:43;30.00;90.30
48535;DHT22;34323;52.022;5.686;2022-07-15T15:19:09;30.10;90.30
48535;DHT22;34323;52.022;5.686;2022-07-15T15:21:35;29.70;90.10
48535;DHT22;34323;52.022;5.686;2022-07-15T15:24:02;29.30;90.20
48535;DHT22;34323;52.022;5.686;2022-07-15T15:26:28;29.00;90.00
48535;DHT22;34323;52.022;5.686;2022-07-15T15:28:55;28.80;90.30
48535;DHT22;34323;52.022;5.686;2022-07-15T15:31:22;29.00;90.40
48535;DHT22;34323;52.022;5.686;2022-07-15T15:33:49;28.90;90.80
48535;DHT22;34323;52.022;5.686;2022-07-15T15:36:15;28.50;90.80
48535;DHT22;34323;52.022;5.686;2022-07-15T15:38:41;28.00;90.90
48535;DHT22;34323;52.022;5.686;2022-07-15T15:41:07;27.90;90.90
48535;DHT22;34323;52.022;5.686;2022-07-15T15:43:33;28.10;91.00
48535;DHT22;34323;52.022;5.686;2022-07-15T15:46:00;28.00;91.20
48535;DHT22;34323;52.022;5.686;2022-07-15T15:48:26;28.10;90.90
48535;DHT22;34323;52.022;5.686;2022-07-15T15:50:52;27.90;90.80
48535;DHT22;34323;52.022;5.686;2022-07-15T15:53:18;28.00;91.40
48535;DHT22;34323;52.022;5.686;2022-07-15T15:55:44;28.20;91.40
48535;DHT22;34323;52.022;5.686;2022-07-15T15:58:09;28.20;91.00
48535;DHT22;34323;52.022;5.686;2022-07-15T16:00:35;28.20;90.90
48535;DHT22;34323;52.022;5.686;2022-07-15T16:03:02;28.30;91.30
48535;DHT22;34323;52.022;5.686;2022-07-15T16:05:28;28.40;91.40
48535;DHT22;34323;52.022;5.686;2022-07-15T16:07:54;28.30;91.20
48535;DHT22;34323;52.022;5.686;2022-07-15T16:10:20;28.10;90.90
48535;DHT22;34323;52.022;5.686;2022-07-15T16:12:45;27.80;91.00